createdAt,value
2017-09-21T14:28:17.474Z,16.42
2017-09-21T14:29:19.352Z,16.42
2017-09-21T14:30:21.246Z,16.38
2017-09-21T14:31:23.140Z,16.30
2017-09-21T14:32:24.972Z,16.39
2017-09-21T14:33:26.795Z,16.41
2017-09-21T14:34:28.682Z,16.31
2017-09-21T14:35:30.571Z,16.38
2017-09-21T14:36:32.462Z,16.43
2017-09-21T14:37:46.654Z,16.43
2017-09-21T14:38:48.534Z,16.64
2017-09-21T14:39:50.440Z,16.63
2017-09-21T14:40:52.324Z,16.83
2017-09-21T14:41:54.150Z,16.82
2017-09-21T14:42:56.099Z,16.97
2017-09-21T14:43:58.167Z,16.97
2017-09-21T14:45:00.253Z,16.83
2017-09-21T14:46:02.250Z,17.01
2017-09-21T14:47:16.650Z,16.93
2017-09-21T14:48:18.692Z,16.96
2017-09-21T14:49:20.714Z,17.01
2017-09-21T14:50:22.780Z,17.15
2017-09-21T14:51:24.663Z,17.21
2017-09-21T14:52:26.509Z,17.15
2017-09-21T14:53:28.387Z,17.34
2017-09-21T14:54:30.282Z,17.36
2017-09-21T14:55:32.175Z,17.34
2017-09-21T14:56:46.339Z,17.34
2017-09-21T14:57:48.251Z,17.37
2017-09-21T14:58:50.121Z,17.48
2017-09-21T14:59:52.012Z,17.51
2017-09-21T15:00:53.850Z,17.49
2017-09-21T15:01:55.675Z,17.48
2017-09-21T15:02:57.568Z,17.23
2017-09-21T15:03:59.459Z,17.25
2017-09-21T15:05:01.350Z,17.07
2017-09-21T15:06:15.514Z,17.00
2017-09-21T15:07:17.403Z,17.01
2017-09-21T15:08:19.294Z,16.96
2017-09-21T15:09:21.183Z,17.04
2017-09-21T15:10:23.024Z,16.93
2017-09-21T15:11:24.853Z,16.78
2017-09-21T15:12:26.709Z,16.67
2017-09-21T15:13:28.596Z,16.66
2017-09-21T15:14:30.487Z,16.60
2017-09-21T15:15:44.705Z,16.49
2017-09-21T15:16:46.593Z,16.67
2017-09-21T15:17:48.485Z,16.68
2017-09-21T15:18:50.375Z,16.67
2017-09-21T15:19:52.203Z,16.73
2017-09-21T15:20:54.035Z,16.67
2017-09-21T15:21:55.925Z,16.88
2017-09-21T15:22:57.818Z,16.81
2017-09-21T15:23:59.707Z,16.96
2017-09-21T15:25:13.871Z,16.96
2017-09-21T15:26:15.758Z,16.89
2017-09-21T15:27:17.652Z,16.96
2017-09-21T15:28:19.544Z,16.85
2017-09-21T15:29:21.375Z,16.88
2017-09-21T15:30:23.197Z,16.85
2017-09-21T15:31:25.085Z,16.81
2017-09-21T15:32:26.977Z,16.82
2017-09-21T15:33:28.869Z,16.93
2017-09-21T15:34:43.096Z,16.81
2017-09-21T15:35:44.976Z,16.82
2017-09-21T15:36:46.871Z,16.82
2017-09-21T15:37:48.763Z,16.82
2017-09-21T15:38:50.588Z,16.93
2017-09-21T15:39:52.421Z,16.96
2017-09-21T15:40:54.304Z,16.89
2017-09-21T15:41:56.192Z,16.94
2017-09-21T15:42:58.083Z,16.86
2017-09-21T15:44:12.251Z,16.81
2017-09-21T15:45:14.143Z,16.82
2017-09-21T15:46:16.036Z,16.88
2017-09-21T15:47:17.960Z,16.89
2017-09-21T15:48:19.786Z,16.89
2017-09-21T15:49:21.615Z,16.79
2017-09-21T15:50:23.505Z,16.85
2017-09-21T15:51:25.394Z,16.79
2017-09-21T15:52:27.246Z,16.76
2017-09-21T15:53:41.408Z,16.76
2017-09-21T15:54:43.301Z,16.63
2017-09-21T15:55:45.197Z,16.63
2017-09-21T15:56:47.088Z,16.56
2017-09-21T15:57:48.911Z,16.57
2017-09-21T15:58:50.742Z,16.52
2017-09-21T15:59:52.629Z,16.60
2017-09-21T16:00:54.528Z,16.63
2017-09-21T16:01:56.420Z,16.61
2017-09-21T16:03:10.583Z,16.61
2017-09-21T16:04:12.471Z,16.63
2017-09-21T16:05:14.391Z,16.58
2017-09-21T16:06:16.262Z,16.52
2017-09-21T16:07:18.089Z,16.57
2017-09-21T16:08:19.913Z,16.43
2017-09-21T16:09:21.805Z,16.42
2017-09-21T16:10:23.696Z,16.35
2017-09-21T16:11:25.607Z,16.34
2017-09-21T16:12:39.767Z,16.41
2017-09-21T16:13:41.660Z,16.27
2017-09-21T16:14:43.556Z,16.17
2017-09-21T16:15:45.455Z,16.23
2017-09-21T16:16:47.617Z,16.12
2017-09-21T16:17:49.412Z,16.17
2017-09-21T16:18:51.303Z,16.23
2017-09-21T16:19:53.192Z,16.31
2017-09-21T16:20:55.083Z,16.33
2017-09-21T16:22:09.260Z,16.25
2017-09-21T16:23:11.143Z,16.30
2017-09-21T16:24:13.034Z,16.27
2017-09-21T16:25:14.921Z,16.30
2017-09-21T16:26:16.749Z,16.33
2017-09-21T16:27:18.576Z,16.35
2017-09-21T16:28:20.468Z,16.34
2017-09-21T16:29:22.353Z,16.21
2017-09-21T16:30:24.248Z,16.17
2017-09-21T16:31:38.427Z,16.25
2017-09-21T16:32:40.338Z,16.25
2017-09-21T16:33:42.228Z,16.12
2017-09-21T16:34:44.119Z,16.08
2017-09-21T16:35:45.947Z,16.05
2017-09-21T16:36:47.771Z,16.00
2017-09-21T16:37:49.660Z,16.01
2017-09-21T16:38:51.552Z,15.96
2017-09-21T16:39:53.441Z,15.93
2017-09-21T16:41:07.605Z,15.93
2017-09-21T16:42:09.492Z,15.97
2017-09-21T16:43:11.381Z,16.04
2017-09-21T16:44:13.268Z,16.00
2017-09-21T16:45:15.094Z,16.02
2017-09-21T16:46:16.917Z,15.96
2017-09-21T16:47:18.804Z,16.00
2017-09-21T16:48:20.701Z,16.04
2017-09-21T16:49:22.892Z,15.96
2017-09-21T16:50:37.021Z,16.00
2017-09-21T16:51:38.904Z,15.94
2017-09-21T16:52:40.797Z,15.96
2017-09-21T16:53:42.684Z,15.96
2017-09-21T16:54:44.507Z,15.93
2017-09-21T16:55:46.331Z,15.96
2017-09-21T16:56:48.220Z,15.96
2017-09-21T16:57:50.113Z,15.94
2017-09-21T16:58:52.003Z,15.94
2017-09-21T17:00:06.208Z,15.96
2017-09-21T17:01:08.101Z,15.96
2017-09-21T17:02:09.991Z,15.93
2017-09-21T17:03:11.880Z,15.93
2017-09-21T17:04:13.710Z,15.97
2017-09-21T17:05:15.529Z,15.84
2017-09-21T17:06:17.420Z,15.82
2017-09-21T17:07:19.306Z,15.82
2017-09-21T17:08:21.226Z,15.75
2017-09-21T17:09:35.382Z,15.68
2017-09-21T17:10:37.268Z,15.72
2017-09-21T17:11:39.164Z,15.75
2017-09-21T17:12:41.128Z,15.65
2017-09-21T17:13:43.264Z,15.56
2017-09-21T17:14:45.072Z,15.50
2017-09-21T17:15:46.960Z,15.56
2017-09-21T17:16:48.843Z,15.54
2017-09-21T17:17:50.733Z,15.53
2017-09-21T17:19:04.891Z,15.62
2017-09-21T17:20:06.779Z,15.59
2017-09-21T17:21:08.666Z,15.68
2017-09-21T17:22:10.866Z,15.71
2017-09-21T17:23:12.653Z,15.71
2017-09-21T17:24:14.476Z,15.64
2017-09-21T17:25:16.366Z,15.68
